sensor_id;sensor_type;location;lat;lon;timestamp;pressure;altitude;pressure_sealevel;temperature;humidity
84308;BME280;74486;52.070;5.128;2024-01-15T00:00:22;100470.44;;;0.96;100.00
84308;BME280;74486;52.070;5.128;2024-01-15T00:02:47;100469.34;;;1.04;100.00
84308;BME280;74486;52.070;5.128;2024-01-15T00:05:13;100461.44;;;0.91;100.00
84308;BME280;74486;52.070;5.128;2024-01-15T00:07:38;100455.63;;;0.94;100.00
84308;BME280;74486;52.070;5.128;2024-01-15T00:10:04;100448.31;;;0.88;100.00
84308;BME280;74486;52.070;5.128;2024-01-15T00:12:31;100455.28;;;0.89;100.00
84308;BME280;74486;52.070;5.128;2024-01-15T00:14:56;100448.63;;;0.81;100.00
84308;BME280;74486;52.070;5.128;2024-01-15T00:17:22;100448.91;;;0.74;100.00
84308;BME280;74486;52.070;5.128;2024-01-15T00:19:47;100443.19;;;0.66;100.00
84308;BME280;74486;52.070;5.128;2024-01-15T00:22:13;100437.16;;;0.66;100.00
84308;BME280;74486;52.070;5.128;2024-01-15T00:24:38;100442.53;;;0.69;100.00
84308;BME280;74486;52.070;5.128;2024-01-15T00:27:04;100433.97;;;0.80;100.00
84308;BME280;74486;52.070;5.128;2024-01-15T00:29:31;100424.06;;;0.84;100.00
84308;BME280;74486;52.070;5.128;2024-01-15T00:31:56;100430.09;;;0.85;100.00
84308;BME280;74486;52.070;5.128;2024-01-15T00:34:22;100424.88;;;0.95;100.00
84308;BME280;74486;52.070;5.128;2024-01-15T00:36:47;100429.00;;;0.93;100.00
84308;BME280;74486;52.070;5.128;2024-01-15T00:39:13;100426.25;;;1.02;100.00
84308;BME280;74486;52.070;5.128;2024-01-15T00:41:38;100414.94;;;1.00;100.00
84308;BME280;74486;52.070;5.128;2024-01-15T00:44:04;100410.16;;;1.04;100.00
84308;BME280;74486;52.070;5.128;2024-01-15T00:46:30;100416.13;;;1.15;100.00
84308;BME280;74486;52.070;5.128;2024-01-15T00:48:56;100408.09;;;1.22;100.00
84308;BME280;74486;52.070;5.128;2024-01-15T00:51:21;100408.34;;;1.25;100.00
84308;BME280;74486;52.070;5.128;2024-01-15T00:53:47;100405.78;;;1.37;100.00
84308;BME280;74486;52.070;5.128;2024-01-15T00:56:12;100393.16;;;1.40;99.81
84308;BME280;74486;52.070;5.128;2024-01-15T00:58:37;100394.31;;;1.55;98.04
84308;BME280;74486;52.070;5.128;2024-01-15T01:01:03;100384.78;;;1.54;98.59
84308;BME280;74486;52.070;5.128;2024-01-15T01:03:30;100391.63;;;1.53;98.18
84308;BME280;74486;52.070;5.128;2024-01-15T01:05:55;100391.50;;;1.52;99.05
84308;BME280;74486;52.070;5.128;2024-01-15T01:08:21;100392.25;;;1.51;98.89
84308;BME280;74486;52.070;5.128;2024-01-15T01:10:46;100385.00;;;1.45;99.47
84308;BME280;74486;52.070;5.128;2024-01-15T01:13:11;100382.19;;;1.42;99.09
84308;BME280;74486;52.070;5.128;2024-01-15T01:15:37;100393.41;;;1.54;98.37
84308;BME280;74486;52.070;5.128;2024-01-15T01:18:03;100387.91;;;1.50;98.56
84308;BME280;74486;52.070;5.128;2024-01-15T01:20:30;100390.84;;;1.54;98.08
84308;BME280;74486;52.070;5.128;2024-01-15T01:22:55;100385.34;;;1.50;98.76
84308;BME280;74486;52.070;5.128;2024-01-15T01:25:21;100390.16;;;1.57;98.15
84308;BME280;74486;52.070;5.128;2024-01-15T01:27:46;100380.31;;;1.63;97.52
84308;BME280;74486;52.070;5.128;2024-01-15T01:30:12;100374.91;;;1.60;97.85
84308;BME280;74486;52.070;5.128;2024-01-15T01:32:37;100380.28;;;1.51;98.77
84308;BME280;74486;52.070;5.128;2024-01-15T01:35:03;100379.28;;;1.49;98.39
84308;BME280;74486;52.070;5.128;2024-01-15T01:37:30;100380.28;;;1.51;98.52
84308;BME280;74486;52.070;5.128;2024-01-15T01:39:56;100387.25;;;1.52;98.38
84308;BME280;74486;52.070;5.128;2024-01-15T01:42:21;100388.16;;;1.64;96.63
84308;BME280;74486;52.070;5.128;2024-01-15T01:44:46;100386.25;;;1.62;97.81
84308;BME280;74486;52.070;5.128;2024-01-15T01:47:12;100386.72;;;1.68;97.53
84308;BME280;74486;52.070;5.128;2024-01-15T01:49:38;100379.06;;;1.69;98.61
84308;BME280;74486;52.070;5.128;2024-01-15T01:52:05;100383.09;;;1.66;99.45
84308;BME280;74486;52.070;5.128;2024-01-15T01:54:32;100385.34;;;1.61;100.00
84308;BME280;74486;52.070;5.128;2024-01-15T01:56:58;100386.47;;;1.53;100.00
84308;BME280;74486;52.070;5.128;2024-01-15T01:59:25;100383.19;;;1.44;100.00
84308;BME280;74486;52.070;5.128;2024-01-15T02:01:52;100378.16;;;1.46;100.00
84308;BME280;74486;52.070;5.128;2024-01-15T02:04:19;100388.00;;;1.40;100.00
84308;BME280;74486;52.070;5.128;2024-01-15T02:06:44;100384.97;;;1.34;100.00
84308;BME280;74486;52.070;5.128;2024-01-15T02:09:11;100374.97;;;1.26;100.00
84308;BME280;74486;52.070;5.128;2024-01-15T02:11:38;100377.13;;;1.32;100.00
84308;BME280;74486;52.070;5.128;2024-01-15T02:14:03;100367.16;;;1.37;100.00
84308;BME280;74486;52.070;5.128;2024-01-15T02:16:29;100370.97;;;1.42;100.00
84308;BME280;74486;52.070;5.128;2024-01-15T02:18:54;100367.28;;;1.38;100.00
84308;BME280;74486;52.070;5.128;2024-01-15T02:21:20;100375.22;;;1.41;100.00
84308;BME280;74486;52.070;5.128;2024-01-15T02:23:47;100371.97;;;1.32;100.00
84308;BME280;74486;52.070;5.128;2024-01-15T02:26:12;100376.13;;;1.30;100.00
84308;BME280;74486;52.070;5.128;2024-01-15T02:28:38;100386.72;;;1.23;100.00
84308;BME280;74486;52.070;5.128;2024-01-15T02:31:03;100382.97;;;1.08;100.00
84308;BME280;74486;52.070;5.128;2024-01-15T02:33:29;100390.75;;;0.98;100.00
84308;BME280;74486;52.070;5.128;2024-01-15T02:35:54;100398.66;;;1.11;100.00
84308;BME280;74486;52.070;5.128;2024-01-15T02:38:20;100396.88;;;1.21;100.00
84308;BME280;74486;52.070;5.128;2024-01-15T02:40:47;100400.63;;;1.25;100.00
84308;BME280;74486;52.070;5.128;2024-01-15T02:43:12;100399.38;;;1.31;100.00
84308;BME280;74486;52.070;5.128;2024-01-15T02:45:37;100398.75;;;1.46;100.00
84308;BME280;74486;52.070;5.128;2024-01-15T02:48:03;100397.22;;;1.59;100.00
84308;BME280;74486;52.070;5.128;2024-01-15T02:50:29;100395.53;;;1.60;100.00
84308;BME280;74486;52.070;5.128;2024-01-15T02:52:54;100393.84;;;1.60;100.00
84308;BME280;74486;52.070;5.128;2024-01-15T02:55:20;100389.84;;;1.64;100.00
84308;BME280;74486;52.070;5.128;2024-01-15T02:57:46;100385.00;;;1.57;100.00
84308;BME280;74486;52.070;5.128;2024-01-15T03:00:12;100380.53;;;1.54;100.00
84308;BME280;74486;52.070;5.128;2024-01-15T03:02:39;100374.03;;;1.48;100.00
84308;BME280;74486;52.070;5.128;2024-01-15T03:05:05;100379.13;;;1.36;100.00
84308;BME280;74486;52.070;5.128;2024-01-15T03:07:31;100370.28;;;1.33;100.00
84308;BME280;74486;52.070;5.128;2024-01-15T03:09:56;100375.94;;;1.17;100.00
84308;BME280;74486;52.070;5.128;2024-01-15T03:12:22;100368.78;;;1.13;100.00
84308;BME280;74486;52.070;5.128;2024-01-15T03:14:48;100371.25;;;1.11;100.00
84308;BME280;74486;52.070;5.128;2024-01-15T03:17:14;100365.38;;;1.02;100.00
84308;BME280;74486;52.070;5.128;2024-01-15T03:19:39;100367.53;;;1.08;100.00
84308;BME280;74486;52.070;5.128;2024-01-15T03:22:05;100376.75;;;1.16;100.00
84308;BME280;74486;52.070;5.128;2024-01-15T03:24:31;100377.78;;;1.29;100.00
84308;BME280;74486;52.070;5.128;2024-01-15T03:26:57;100362.34;;;1.41;100.00
84308;BME280;74486;52.070;5.128;2024-01-15T03:29:23;100355.78;;;1.45;100.00
84308;BME280;74486;52.070;5.128;2024-01-15T03:31:49;100347.03;;;1.43;100.00
84308;BME280;74486;52.070;5.128;2024-01-15T03:34:15;100340.84;;;1.41;100.00
84308;BME280;74486;52.070;5.128;2024-01-15T03:36:40;100358.22;;;1.43;100.00
84308;BME280;74486;52.070;5.128;2024-01-15T03:39:06;100352.94;;;1.42;100.00
84308;BME280;74486;52.070;5.128;2024-01-15T03:41:31;100351.97;;;1.40;100.00
84308;BME280;74486;52.070;5.128;2024-01-15T03:43:56;100342.88;;;1.33;100.00
84308;BME280;74486;52.070;5.128;2024-01-15T03:46:22;100348.44;;;1.16;100.00
84308;BME280;74486;52.070;5.128;2024-01-15T03:48:49;100342.84;;;1.21;100.00
84308;BME280;74486;52.070;5.128;2024-01-15T03:51:16;100334.44;;;1.12;100.00
84308;BME280;74486;52.070;5.128;2024-01-15T03:53:42;100353.59;;;1.27;100.00
84308;BME280;74486;52.070;5.128;2024-01-15T03:56:07;100371.88;;;1.30;100.00
84308;BME280;74486;52.070;5.128;2024-01-15T03:58:33;100365.56;;;1.27;100.00
84308;BME280;74486;52.070;5.128;2024-01-15T04:00:58;100357.03;;;1.16;100.00
84308;BME280;74486;52.070;5.128;2024-01-15T04:03:23;100354.13;;;1.12;100.00
84308;BME280;74486;52.070;5.128;2024-01-15T04:05:50;100343.25;;;1.04;100.00
84308;BME280;74486;52.070;5.128;2024-01-15T04:08:16;100333.09;;;1.06;100.00
84308;BME280;74486;52.070;5.128;2024-01-15T04:10:41;100327.69;;;1.03;100.00
84308;BME280;74486;52.070;5.128;2024-01-15T04:13:06;100320.75;;;1.02;100.00
84308;BME280;74486;52.070;5.128;2024-01-15T04:15:32;100315.72;;;1.03;100.00
84308;BME280;74486;52.070;5.128;2024-01-15T04:17:57;100316.63;;;1.04;100.00
84308;BME280;74486;52.070;5.128;2024-01-15T04:20:23;100319.53;;;0.97;100.00
84308;BME280;74486;52.070;5.128;2024-01-15T04:22:50;100322.75;;;0.94;100.00
84308;BME280;74486;52.070;5.128;2024-01-15T04:25:15;100319.75;;;1.00;100.00
84308;BME280;74486;52.070;5.128;2024-01-15T04:27:40;100317.25;;;0.90;100.00
84308;BME280;74486;52.070;5.128;2024-01-15T04:30:07;100306.97;;;0.90;100.00
84308;BME280;74486;52.070;5.128;2024-01-15T04:32:32;100306.41;;;0.94;100.00
84308;BME280;74486;52.070;5.128;2024-01-15T04:34:58;100304.19;;;0.98;100.00
84308;BME280;74486;52.070;5.128;2024-01-15T04:37:23;100310.03;;;1.07;100.00
84308;BME280;74486;52.070;5.128;2024-01-15T04:39:51;100303.13;;;1.06;100.00
84308;BME280;74486;52.070;5.128;2024-01-15T04:42:17;100295.72;;;1.11;100.00
84308;BME280;74486;52.070;5.128;2024-01-15T04:44:42;100286.53;;;1.03;100.00
84308;BME280;74486;52.070;5.128;2024-01-15T04:47:08;100294.72;;;1.09;100.00
84308;BME280;74486;52.070;5.128;2024-01-15T04:49:33;100285.44;;;1.11;100.00
84308;BME280;74486;52.070;5.128;2024-01-15T04:51:58;100303.88;;;1.17;100.00
84308;BME280;74486;52.070;5.128;2024-01-15T04:54:24;100301.31;;;1.17;100.00
84308;BME280;74486;52.070;5.128;2024-01-15T04:56:51;100301.22;;;1.15;100.00
84308;BME280;74486;52.070;5.128;2024-01-15T04:59:16;100304.91;;;1.19;100.00
84308;BME280;74486;52.070;5.128;2024-01-15T05:01:41;100309.59;;;1.13;100.00
84308;BME280;74486;52.070;5.128;2024-01-15T05:04:07;100304.44;;;1.13;100.00
84308;BME280;74486;52.070;5.128;2024-01-15T05:06:32;100304.56;;;1.14;100.00
84308;BME280;74486;52.070;5.128;2024-01-15T05:08:58;100299.75;;;1.19;100.00
84308;BME280;74486;52.070;5.128;2024-01-15T05:11:23;100295.72;;;1.11;100.00
84308;BME280;74486;52.070;5.128;2024-01-15T05:13:50;100293.34;;;1.02;100.00
84308;BME280;74486;52.070;5.128;2024-01-15T05:16:15;100290.34;;;0.96;100.00
84308;BME280;74486;52.070;5.128;2024-01-15T05:18:41;100288.44;;;1.05;100.00
84308;BME280;74486;52.070;5.128;2024-01-15T05:21:06;100279.16;;;1.07;100.00
84308;BME280;74486;52.070;5.128;2024-01-15T05:23:32;100284.50;;;0.99;100.00
84308;BME280;74486;52.070;5.128;2024-01-15T05:25:57;100283.13;;;0.92;100.00
84308;BME280;74486;52.070;5.128;2024-01-15T05:28:23;100281.66;;;0.84;100.00
84308;BME280;74486;52.070;5.128;2024-01-15T05:30:50;100279.66;;;0.80;100.00
84308;BME280;74486;52.070;5.128;2024-01-15T05:33:15;100277.31;;;0.83;100.00
84308;BME280;74486;52.070;5.128;2024-01-15T05:35:40;100276.94;;;0.78;100.00
84308;BME280;74486;52.070;5.128;2024-01-15T05:38:06;100275.25;;;0.67;100.00
84308;BME280;74486;52.070;5.128;2024-01-15T05:40:31;100280.84;;;0.73;100.00
84308;BME280;74486;52.070;5.128;2024-01-15T05:42:57;100274.81;;;0.73;100.00
84308;BME280;74486;52.070;5.128;2024-01-15T05:45:22;100274.03;;;0.74;100.00
84308;BME280;74486;52.070;5.128;2024-01-15T05:47:49;100274.72;;;0.83;100.00
84308;BME280;74486;52.070;5.128;2024-01-15T05:50:14;100274.66;;;0.93;100.00
84308;BME280;74486;52.070;5.128;2024-01-15T05:52:40;100268.16;;;0.98;100.00
84308;BME280;74486;52.070;5.128;2024-01-15T05:55:06;100265.59;;;0.98;100.00
84308;BME280;74486;52.070;5.128;2024-01-15T05:57:31;100290.91;;;1.04;100.00
84308;BME280;74486;52.070;5.128;2024-01-15T05:59:57;100271.00;;;1.01;100.00
84308;BME280;74486;52.070;5.128;2024-01-15T06:02:22;100265.81;;;0.90;100.00
84308;BME280;74486;52.070;5.128;2024-01-15T06:04:49;100270.38;;;0.82;100.00
84308;BME280;74486;52.070;5.128;2024-01-15T06:07:14;100267.81;;;0.94;100.00
84308;BME280;74486;52.070;5.128;2024-01-15T06:09:40;100263.38;;;0.91;100.00
84308;BME280;74486;52.070;5.128;2024-01-15T06:12:07;100259.97;;;0.92;100.00
84308;BME280;74486;52.070;5.128;2024-01-15T06:14:32;100251.06;;;0.99;100.00
84308;BME280;74486;52.070;5.128;2024-01-15T06:16:58;100255.56;;;1.01;100.00
84308;BME280;74486;52.070;5.128;2024-01-15T06:19:23;100245.00;;;0.98;100.00
84308;BME280;74486;52.070;5.128;2024-01-15T06:21:50;100235.63;;;0.99;100.00
84308;BME280;74486;52.070;5.128;2024-01-15T06:24:15;100240.66;;;0.97;100.00
84308;BME280;74486;52.070;5.128;2024-01-15T06:26:41;100248.59;;;1.00;100.00
84308;BME280;74486;52.070;5.128;2024-01-15T06:29:06;100246.69;;;0.98;100.00
84308;BME280;74486;52.070;5.128;2024-01-15T06:31:32;100255.91;;;1.06;100.00
84308;BME280;74486;52.070;5.128;2024-01-15T06:33:57;100264.25;;;1.03;100.00
84308;BME280;74486;52.070;5.128;2024-01-15T06:36:23;100278.81;;;1.03;100.00
84308;BME280;74486;52.070;5.128;2024-01-15T06:38:50;100285.75;;;1.04;100.00
84308;BME280;74486;52.070;5.128;2024-01-15T06:41:15;100290.56;;;0.99;100.00
84308;BME280;74486;52.070;5.128;2024-01-15T06:43:41;100282.16;;;0.90;100.00
84308;BME280;74486;52.070;5.128;2024-01-15T06:46:06;100267.47;;;0.77;100.00
84308;BME280;74486;52.070;5.128;2024-01-15T06:48:31;100260.88;;;0.81;100.00
84308;BME280;74486;52.070;5.128;2024-01-15T06:50:57;100258.06;;;0.78;100.00
84308;BME280;74486;52.070;5.128;2024-01-15T06:53:22;100258.41;;;0.82;100.00
84308;BME280;74486;52.070;5.128;2024-01-15T06:55:49;100253.94;;;0.80;100.00
84308;BME280;74486;52.070;5.128;2024-01-15T06:58:15;100253.47;;;0.74;100.00
84308;BME280;74486;52.070;5.128;2024-01-15T07:00:40;100244.28;;;0.66;100.00
84308;BME280;74486;52.070;5.128;2024-01-15T07:03:06;100256.91;;;0.63;100.00
84308;BME280;74486;52.070;5.128;2024-01-15T07:05:31;100267.81;;;0.82;100.00
84308;BME280;74486;52.070;5.128;2024-01-15T07:07:56;100283.38;;;0.95;100.00
84308;BME280;74486;52.070;5.128;2024-01-15T07:10:22;100281.59;;;0.94;100.00
84308;BME280;74486;52.070;5.128;2024-01-15T07:12:49;100286.19;;;0.98;100.00
84308;BME280;74486;52.070;5.128;2024-01-15T07:15:14;100287.06;;;0.87;100.00
84308;BME280;74486;52.070;5.128;2024-01-15T07:17:40;100301.47;;;0.85;100.00
84308;BME280;74486;52.070;5.128;2024-01-15T07:20:07;100293.97;;;0.88;100.00
84308;BME280;74486;52.070;5.128;2024-01-15T07:22:33;100290.63;;;0.89;100.00
84308;BME280;74486;52.070;5.128;2024-01-15T07:24:59;100284.03;;;0.93;100.00
84308;BME280;74486;52.070;5.128;2024-01-15T07:27:24;100290.09;;;0.93;100.00
84308;BME280;74486;52.070;5.128;2024-01-15T07:29:51;100294.66;;;0.97;100.00
84308;BME280;74486;52.070;5.128;2024-01-15T07:32:16;100293.56;;;0.94;100.00
84308;BME280;74486;52.070;5.128;2024-01-15T07:34:42;100279.09;;;0.84;100.00
84308;BME280;74486;52.070;5.128;2024-01-15T07:37:07;100289.38;;;0.72;100.00
84308;BME280;74486;52.070;5.128;2024-01-15T07:39:33;100278.19;;;0.72;100.00
84308;BME280;74486;52.070;5.128;2024-01-15T07:41:58;100276.38;;;0.71;100.00
84308;BME280;74486;52.070;5.128;2024-01-15T07:44:24;100272.91;;;0.70;100.00
84308;BME280;74486;52.070;5.128;2024-01-15T07:46:50;100279.72;;;0.70;100.00
84308;BME280;74486;52.070;5.128;2024-01-15T07:49:16;100295.50;;;0.74;100.00
84308;BME280;74486;52.070;5.128;2024-01-15T07:51:41;100300.22;;;0.80;100.00
84308;BME280;74486;52.070;5.128;2024-01-15T07:54:07;100298.13;;;0.86;100.00
84308;BME280;74486;52.070;5.128;2024-01-15T07:56:32;100295.28;;;0.71;100.00
84308;BME280;74486;52.070;5.128;2024-01-15T07:58:58;100290.50;;;0.76;100.00
84308;BME280;74486;52.070;5.128;2024-01-15T08:01:24;100268.03;;;0.85;100.00
84308;BME280;74486;52.070;5.128;2024-01-15T08:03:50;100268.25;;;0.88;100.00
84308;BME280;74486;52.070;5.128;2024-01-15T08:06:16;100271.16;;;0.81;100.00
84308;BME280;74486;52.070;5.128;2024-01-15T08:08:41;100281.19;;;0.78;100.00
84308;BME280;74486;52.070;5.128;2024-01-15T08:11:07;100280.56;;;0.80;100.00
84308;BME280;74486;52.070;5.128;2024-01-15T08:13:32;100281.94;;;0.87;100.00
84308;BME280;74486;52.070;5.128;2024-01-15T08:15:58;100284.13;;;0.82;100.00
84308;BME280;74486;52.070;5.128;2024-01-15T08:18:23;100286.59;;;0.81;100.00
84308;BME280;74486;52.070;5.128;2024-01-15T08:20:50;100288.06;;;0.77;100.00
84308;BME280;74486;52.070;5.128;2024-01-15T08:23:16;100289.13;;;0.69;100.00
84308;BME280;74486;52.070;5.128;2024-01-15T08:25:41;100283.41;;;0.62;100.00
84308;BME280;74486;52.070;5.128;2024-01-15T08:28:06;100286.75;;;0.61;100.00
84308;BME280;74486;52.070;5.128;2024-01-15T08:30:32;100294.59;;;0.62;100.00
84308;BME280;74486;52.070;5.128;2024-01-15T08:32:57;100305.78;;;0.74;100.00
84308;BME280;74486;52.070;5.128;2024-01-15T08:35:23;100319.56;;;0.75;100.00
84308;BME280;74486;52.070;5.128;2024-01-15T08:37:50;100320.09;;;0.71;100.00
84308;BME280;74486;52.070;5.128;2024-01-15T08:40:15;100305.16;;;0.55;100.00
84308;BME280;74486;52.070;5.128;2024-01-15T08:42:41;100302.25;;;0.51;100.00
84308;BME280;74486;52.070;5.128;2024-01-15T08:45:07;100295.00;;;0.57;100.00
84308;BME280;74486;52.070;5.128;2024-01-15T08:47:32;100290.94;;;0.49;100.00
84308;BME280;74486;52.070;5.128;2024-01-15T08:49:58;100285.44;;;0.44;100.00
84308;BME280;74486;52.070;5.128;2024-01-15T08:52:23;100283.91;;;0.46;100.00
84308;BME280;74486;52.070;5.128;2024-01-15T08:54:50;100295.44;;;0.51;100.00
84308;BME280;74486;52.070;5.128;2024-01-15T08:57:15;100293.22;;;0.56;100.00
84308;BME280;74486;52.070;5.128;2024-01-15T08:59:41;100298.91;;;0.52;100.00
84308;BME280;74486;52.070;5.128;2024-01-15T09:02:06;100308.50;;;0.54;100.00
84308;BME280;74486;52.070;5.128;2024-01-15T09:04:32;100322.13;;;0.75;100.00
84308;BME280;74486;52.070;5.128;2024-01-15T09:06:57;100317.53;;;0.71;100.00
84308;BME280;74486;52.070;5.128;2024-01-15T09:09:23;100321.44;;;0.66;100.00
84308;BME280;74486;52.070;5.128;2024-01-15T09:11:49;100318.19;;;0.68;100.00
84308;BME280;74486;52.070;5.128;2024-01-15T09:14:15;100330.03;;;0.66;100.00
84308;BME280;74486;52.070;5.128;2024-01-15T09:16:40;100323.25;;;0.78;100.00
84308;BME280;74486;52.070;5.128;2024-01-15T09:19:06;100313.22;;;0.93;100.00
84308;BME280;74486;52.070;5.128;2024-01-15T09:21:31;100323.22;;;1.00;100.00
84308;BME280;74486;52.070;5.128;2024-01-15T09:23:57;100327.13;;;0.95;100.00
84308;BME280;74486;52.070;5.128;2024-01-15T09:26:22;100320.94;;;0.93;100.00
84308;BME280;74486;52.070;5.128;2024-01-15T09:28:49;100317.56;;;0.82;100.00
84308;BME280;74486;52.070;5.128;2024-01-15T09:31:14;100311.53;;;0.82;100.00
84308;BME280;74486;52.070;5.128;2024-01-15T09:33:40;100321.69;;;0.80;100.00
84308;BME280;74486;52.070;5.128;2024-01-15T09:36:06;100318.03;;;0.88;100.00
84308;BME280;74486;52.070;5.128;2024-01-15T09:38:31;100319.97;;;0.91;100.00
84308;BME280;74486;52.070;5.128;2024-01-15T09:40:57;100318.59;;;0.84;100.00
84308;BME280;74486;52.070;5.128;2024-01-15T09:43:23;100309.66;;;0.91;100.00
84308;BME280;74486;52.070;5.128;2024-01-15T09:45:50;100298.81;;;0.95;100.00
84308;BME280;74486;52.070;5.128;2024-01-15T09:48:16;100298.69;;;0.94;100.00
84308;BME280;74486;52.070;5.128;2024-01-15T09:50:41;100308.56;;;0.99;100.00
84308;BME280;74486;52.070;5.128;2024-01-15T09:53:09;100301.75;;;1.00;100.00
84308;BME280;74486;52.070;5.128;2024-01-15T09:55:35;100297.53;;;1.23;100.00
84308;BME280;74486;52.070;5.128;2024-01-15T09:58:02;100295.63;;;1.91;100.00
84308;BME280;74486;52.070;5.128;2024-01-15T10:00:28;100290.97;;;1.73;100.00
84308;BME280;74486;52.070;5.128;2024-01-15T10:02:55;100297.13;;;1.64;100.00
84308;BME280;74486;52.070;5.128;2024-01-15T10:05:21;100297.88;;;1.51;100.00
84308;BME280;74486;52.070;5.128;2024-01-15T10:07:50;100309.19;;;1.42;100.00
84308;BME280;74486;52.070;5.128;2024-01-15T10:10:16;100314.78;;;1.48;100.00
84308;BME280;74486;52.070;5.128;2024-01-15T10:12:42;100308.53;;;1.56;100.00
84308;BME280;74486;52.070;5.128;2024-01-15T10:15:09;100306.41;;;1.62;100.00
84308;BME280;74486;52.070;5.128;2024-01-15T10:17:36;100315.47;;;1.68;100.00
84308;BME280;74486;52.070;5.128;2024-01-15T10:20:08;100308.88;;;1.72;100.00
84308;BME280;74486;52.070;5.128;2024-01-15T10:22:33;100299.44;;;1.84;100.00
84308;BME280;74486;52.070;5.128;2024-01-15T10:24:59;100299.88;;;2.02;100.00
84308;BME280;74486;52.070;5.128;2024-01-15T10:27:24;100303.41;;;2.27;100.00
84308;BME280;74486;52.070;5.128;2024-01-15T10:29:49;100296.84;;;2.44;100.00
84308;BME280;74486;52.070;5.128;2024-01-15T10:32:15;100300.66;;;2.49;100.00
84308;BME280;74486;52.070;5.128;2024-01-15T10:34:40;100297.09;;;2.35;100.00
84308;BME280;74486;52.070;5.128;2024-01-15T10:37:09;100295.91;;;2.18;100.00
84308;BME280;74486;52.070;5.128;2024-01-15T10:39:34;100310.06;;;2.12;100.00
84308;BME280;74486;52.070;5.128;2024-01-15T10:42:00;100316.91;;;2.11;100.00
84308;BME280;74486;52.070;5.128;2024-01-15T10:44:25;100312.97;;;2.16;100.00
84308;BME280;74486;52.070;5.128;2024-01-15T10:46:51;100315.63;;;2.18;100.00
84308;BME280;74486;52.070;5.128;2024-01-15T10:49:17;100313.47;;;2.36;100.00
84308;BME280;74486;52.070;5.128;2024-01-15T10:51:42;100311.91;;;2.62;100.00
84308;BME280;74486;52.070;5.128;2024-01-15T10:54:10;100316.41;;;2.65;100.00
84308;BME280;74486;52.070;5.128;2024-01-15T10:56:37;100317.22;;;2.52;100.00
84308;BME280;74486;52.070;5.128;2024-01-15T10:59:04;100322.53;;;2.42;100.00
84308;BME280;74486;52.070;5.128;2024-01-15T11:01:30;100335.59;;;2.32;100.00
84308;BME280;74486;52.070;5.128;2024-01-15T11:03:55;100332.31;;;2.35;100.00
84308;BME280;74486;52.070;5.128;2024-01-15T11:06:24;100337.38;;;2.22;100.00
84308;BME280;74486;52.070;5.128;2024-01-15T11:08:49;100338.38;;;2.24;100.00
84308;BME280;74486;52.070;5.128;2024-01-15T11:11:16;100345.47;;;2.14;100.00
84308;BME280;74486;52.070;5.128;2024-01-15T11:13:42;100348.06;;;2.03;100.00
84308;BME280;74486;52.070;5.128;2024-01-15T11:16:09;100343.47;;;1.87;100.00
84308;BME280;74486;52.070;5.128;2024-01-15T11:18:37;100337.66;;;1.78;100.00
84308;BME280;74486;52.070;5.128;2024-01-15T11:21:22;100331.34;;;1.74;100.00
84308;BME280;74486;52.070;5.128;2024-01-15T11:23:49;100339.19;;;1.99;100.00
84308;BME280;74486;52.070;5.128;2024-01-15T11:26:33;100341.53;;;2.19;100.00
84308;BME280;74486;52.070;5.128;2024-01-15T11:29:00;100345.00;;;2.20;100.00
84308;BME280;74486;52.070;5.128;2024-01-15T11:31:27;100348.28;;;2.06;100.00
84308;BME280;74486;52.070;5.128;2024-01-15T11:33:53;100349.41;;;1.98;100.00
84308;BME280;74486;52.070;5.128;2024-01-15T11:36:18;100355.56;;;2.00;100.00
84308;BME280;74486;52.070;5.128;2024-01-15T11:38:44;100359.94;;;2.01;100.00
84308;BME280;74486;52.070;5.128;2024-01-15T11:41:13;100373.16;;;1.94;100.00
84308;BME280;74486;52.070;5.128;2024-01-15T11:43:40;100357.03;;;1.96;100.00
84308;BME280;74486;52.070;5.128;2024-01-15T11:46:11;100366.78;;;1.89;100.00
84308;BME280;74486;52.070;5.128;2024-01-15T11:48:43;100364.66;;;1.83;100.00
84308;BME280;74486;52.070;5.128;2024-01-15T11:51:11;100359.25;;;1.80;100.00
84308;BME280;74486;52.070;5.128;2024-01-15T11:53:43;100368.25;;;1.73;100.00
84308;BME280;74486;52.070;5.128;2024-01-15T11:56:14;100364.31;;;1.79;100.00
84308;BME280;74486;52.070;5.128;2024-01-15T11:58:41;100366.56;;;1.74;100.00
84308;BME280;74486;52.070;5.128;2024-01-15T12:01:07;100361.84;;;1.68;100.00
84308;BME280;74486;52.070;5.128;2024-01-15T12:03:32;100358.03;;;1.75;100.00
84308;BME280;74486;52.070;5.128;2024-01-15T12:05:58;100363.75;;;1.83;100.00
84308;BME280;74486;52.070;5.128;2024-01-15T12:08:24;100368.00;;;1.82;100.00
84308;BME280;74486;52.070;5.128;2024-01-15T12:10:49;100368.56;;;1.78;100.00
84308;BME280;74486;52.070;5.128;2024-01-15T12:13:15;100375.06;;;1.96;100.00
84308;BME280;74486;52.070;5.128;2024-01-15T12:15:43;100376.50;;;2.04;100.00
84308;BME280;74486;52.070;5.128;2024-01-15T12:18:12;100376.97;;;2.22;100.00
84308;BME280;74486;52.070;5.128;2024-01-15T12:20:39;100378.47;;;2.43;100.00
84308;BME280;74486;52.070;5.128;2024-01-15T12:23:06;100382.06;;;2.45;100.00
84308;BME280;74486;52.070;5.128;2024-01-15T12:25:32;100372.47;;;2.31;100.00
84308;BME280;74486;52.070;5.128;2024-01-15T12:28:00;100373.03;;;2.27;100.00
84308;BME280;74486;52.070;5.128;2024-01-15T12:30:26;100365.19;;;2.26;100.00
84308;BME280;74486;52.070;5.128;2024-01-15T12:32:54;100366.72;;;2.24;100.00
84308;BME280;74486;52.070;5.128;2024-01-15T12:35:20;100356.78;;;2.16;100.00
84308;BME280;74486;52.070;5.128;2024-01-15T12:37:45;100362.69;;;2.39;100.00
84308;BME280;74486;52.070;5.128;2024-01-15T12:40:11;100355.50;;;3.21;100.00
84308;BME280;74486;52.070;5.128;2024-01-15T12:42:36;100358.09;;;3.98;96.34